createdAt,value
2018-04-25T00:00:00.425Z,54.23
2018-04-25T00:01:00.646Z,54.23
2018-04-25T00:02:00.538Z,54.2
2018-04-25T00:03:00.450Z,54.24
2018-04-25T00:04:00.504Z,54.18
2018-04-25T00:05:00.539Z,54.19
2018-04-25T00:06:00.427Z,54.2
2018-04-25T00:07:00.578Z,54.21
2018-04-25T00:08:00.390Z,54.22
2018-04-25T00:09:00.563Z,54.19
2018-04-25T00:10:00.416Z,54.22
2018-04-25T00:11:00.622Z,54.2
2018-04-25T00:12:00.485Z,54.17
2018-04-25T00:13:00.607Z,54.18
2018-04-25T00:14:00.664Z,54.2
2018-04-25T00:15:00.554Z,54.23
2018-04-25T00:16:01.189Z,54.22
2018-04-25T00:17:00.599Z,54.23
2018-04-25T00:18:00.427Z,54.18
2018-04-25T00:19:00.653Z,54.19
2018-04-25T00:20:00.460Z,54.19
2018-04-25T00:21:00.606Z,54.2
2018-04-25T00:22:00.428Z,54.22
2018-04-25T00:23:00.432Z,54.21
2018-04-25T00:24:00.566Z,54.22
2018-04-25T00:25:00.544Z,54.2
2018-04-25T00:26:00.612Z,54.16
2018-04-25T00:27:00.623Z,54.19
2018-04-25T00:28:00.515Z,54.18
2018-04-25T00:29:00.378Z,54.19
2018-04-25T00:30:00.571Z,54.18
2018-04-25T00:31:00.502Z,54.21
2018-04-25T00:32:00.548Z,54.18
2018-04-25T00:33:00.502Z,54.2
2018-04-25T00:34:00.474Z,54.18
2018-04-25T00:35:00.508Z,54.18
2018-04-25T00:36:00.428Z,54.13
2018-04-25T00:37:00.451Z,54.18
2018-04-25T00:38:00.685Z,54.16
2018-04-25T00:39:00.812Z,54.18
2018-04-25T00:40:00.440Z,54.21
2018-04-25T00:41:00.398Z,54.16
2018-04-25T00:42:00.411Z,54.22
2018-04-25T00:43:00.789Z,54.26
2018-04-25T00:44:00.552Z,54.2
2018-04-25T00:45:00.605Z,54.2
2018-04-25T00:46:00.579Z,54.19
2018-04-25T00:47:00.407Z,54.17
2018-04-25T00:48:00.754Z,54.16
2018-04-25T00:49:00.629Z,54.16
2018-04-25T00:50:00.488Z,54.17
2018-04-25T00:51:00.436Z,54.21
2018-04-25T00:52:00.548Z,54.16
2018-04-25T00:53:00.529Z,54.19
2018-04-25T00:54:00.837Z,54.21
2018-04-25T00:55:00.668Z,54.18
2018-04-25T00:56:00.369Z,54.12
2018-04-25T00:57:00.628Z,54.18
2018-04-25T00:58:00.642Z,54.13
2018-04-25T00:59:00.634Z,54.13
2018-04-25T01:00:00.553Z,54.16
2018-04-25T01:01:00.681Z,54.15
2018-04-25T01:02:00.545Z,54.16
2018-04-25T01:03:00.501Z,54.21
2018-04-25T01:04:00.591Z,54.17
2018-04-25T01:05:00.482Z,54.16
2018-04-25T01:06:00.413Z,54.13
2018-04-25T01:07:00.500Z,54.18
2018-04-25T01:08:00.428Z,54.11
2018-04-25T01:09:00.681Z,54.18
2018-04-25T01:10:00.502Z,54.21
2018-04-25T01:11:00.527Z,54.14
2018-04-25T01:12:01.047Z,54.14
2018-04-25T01:13:00.588Z,54.13
2018-04-25T01:14:00.431Z,54.14
2018-04-25T01:15:00.534Z,54.11
2018-04-25T01:16:00.564Z,54.21
2018-04-25T01:17:00.438Z,54.14
2018-04-25T01:18:00.573Z,54.14
2018-04-25T01:19:00.530Z,54.13
2018-04-25T01:20:00.559Z,54.12
2018-04-25T01:21:00.565Z,54.14
2018-04-25T01:22:00.536Z,54.16
2018-04-25T01:23:00.504Z,54.14
2018-04-25T01:24:00.459Z,54.18
2018-04-25T01:25:00.565Z,54.18
2018-04-25T01:26:00.519Z,54.12
2018-04-25T01:27:00.571Z,54.11
2018-04-25T01:28:00.577Z,54.14
2018-04-25T01:29:00.349Z,54.14
2018-04-25T01:30:00.463Z,54.18
2018-04-25T01:31:00.320Z,54.16
2018-04-25T01:32:00.526Z,54.12
2018-04-25T01:33:00.372Z,54.16
2018-04-25T01:34:00.409Z,54.13
2018-04-25T01:35:00.445Z,54.14
2018-04-25T01:36:00.489Z,54.16
2018-04-25T01:37:00.366Z,54.14
2018-04-25T01:38:00.591Z,54.12
2018-04-25T01:39:00.581Z,54.18
2018-04-25T01:40:00.641Z,54.18
2018-04-25T01:41:00.322Z,54.12
2018-04-25T01:42:00.622Z,54.16
2018-04-25T01:43:00.518Z,54.16
2018-04-25T01:44:00.468Z,54.17
2018-04-25T01:45:00.598Z,54.12
2018-04-25T01:46:00.436Z,54.16
2018-04-25T01:47:00.578Z,54.12
2018-04-25T01:48:00.517Z,54.15
2018-04-25T01:49:00.855Z,54.14
2018-04-25T01:50:00.442Z,54.14
2018-04-25T01:51:00.588Z,54.14
2018-04-25T01:52:00.370Z,54.13
2018-04-25T01:53:00.449Z,54.12
2018-04-25T01:54:00.391Z,54.13
2018-04-25T01:55:00.588Z,54.13
2018-04-25T01:56:00.349Z,54.16
2018-04-25T01:57:00.609Z,54.15
2018-04-25T01:58:00.415Z,54.12
2018-04-25T01:59:00.497Z,54.11
2018-04-25T02:00:00.579Z,54.13
2018-04-25T02:01:00.561Z,54.16
2018-04-25T02:02:00.464Z,54.13
2018-04-25T02:03:00.495Z,54.16
2018-04-25T02:04:00.455Z,54.15
2018-04-25T02:05:00.540Z,54.17
2018-04-25T02:06:00.351Z,54.13
2018-04-25T02:07:00.496Z,54.14
2018-04-25T02:08:00.518Z,54.11
2018-04-25T02:09:00.602Z,54.16
2018-04-25T02:10:00.601Z,54.15
2018-04-25T02:11:00.615Z,54.1
2018-04-25T02:12:00.533Z,54.16
2018-04-25T02:13:00.496Z,54.16
2018-04-25T02:14:00.610Z,54.1
2018-04-25T02:15:00.402Z,54.13
2018-04-25T02:16:00.587Z,54.15
2018-04-25T02:17:00.444Z,54.1
2018-04-25T02:18:00.556Z,54.1
2018-04-25T02:19:00.814Z,54.12
2018-04-25T02:20:00.403Z,54.12
2018-04-25T02:21:00.371Z,54.16
2018-04-25T02:22:00.498Z,54.17
2018-04-25T02:23:00.507Z,54.15
2018-04-25T02:24:00.556Z,54.15
2018-04-25T02:25:00.585Z,54.15
2018-04-25T02:26:00.579Z,54.12
2018-04-25T02:27:00.373Z,54.15
2018-04-25T02:28:00.518Z,54.09
2018-04-25T02:29:00.648Z,54.11
2018-04-25T02:30:00.444Z,54.12
2018-04-25T02:31:00.454Z,54.15
2018-04-25T02:32:00.582Z,54.15
2018-04-25T02:33:00.420Z,54.16
2018-04-25T02:34:00.387Z,54.11
2018-04-25T02:35:00.602Z,54.12
2018-04-25T02:36:00.412Z,54.14
2018-04-25T02:37:00.445Z,54.09
2018-04-25T02:38:00.515Z,54.15
2018-04-25T02:39:00.490Z,54.16
2018-04-25T02:40:00.567Z,54.15
2018-04-25T02:41:00.765Z,54.13
2018-04-25T02:42:00.420Z,54.14
2018-04-25T02:43:00.489Z,54.16
2018-04-25T02:44:00.400Z,54.15
2018-04-25T02:45:00.449Z,54.12
2018-04-25T02:46:00.392Z,54.13
2018-04-25T02:47:00.478Z,54.11
2018-04-25T02:48:00.626Z,54.12
2018-04-25T02:49:00.496Z,54.13
2018-04-25T02:50:00.437Z,54.11
2018-04-25T02:51:00.421Z,54.11
2018-04-25T02:52:00.603Z,54.08
2018-04-25T02:53:00.477Z,54.12
2018-04-25T02:54:00.792Z,54.17
2018-04-25T02:55:00.594Z,54.13
2018-04-25T02:56:00.422Z,54.14
2018-04-25T02:57:00.395Z,54.16
2018-04-25T02:58:00.530Z,54.15
2018-04-25T02:59:01.819Z,54.14
2018-04-25T03:00:00.415Z,54.12
2018-04-25T03:01:00.607Z,54.16
2018-04-25T03:02:00.439Z,54.05
2018-04-25T03:03:00.510Z,54.11
2018-04-25T03:04:00.463Z,54.12
2018-04-25T03:05:00.682Z,54.14
2018-04-25T03:06:00.532Z,54.14
2018-04-25T03:07:00.425Z,54.15
2018-04-25T03:08:00.420Z,54.12
2018-04-25T03:09:00.535Z,54.14
2018-04-25T03:10:00.501Z,54.14
2018-04-25T03:11:00.704Z,54.12
2018-04-25T03:12:00.384Z,54.15
2018-04-25T03:13:00.415Z,54.14
2018-04-25T03:14:00.538Z,54.12
2018-04-25T03:15:00.422Z,54.07
2018-04-25T03:16:00.531Z,54.16
2018-04-25T03:17:00.480Z,54.11
2018-04-25T03:18:00.443Z,54.14
2018-04-25T03:19:00.607Z,54.14
2018-04-25T03:20:00.408Z,54.13
2018-04-25T03:21:00.564Z,54.11
2018-04-25T03:22:00.624Z,54.16
2018-04-25T03:23:00.393Z,54.11
2018-04-25T03:24:00.384Z,54.15
2018-04-25T03:25:00.361Z,54.15
2018-04-25T03:26:00.371Z,54.11
2018-04-25T03:27:00.512Z,54.15
2018-04-25T03:28:00.562Z,54.11
2018-04-25T03:29:00.557Z,54.12
2018-04-25T03:30:00.401Z,54.13
2018-04-25T03:31:00.575Z,54.14
2018-04-25T03:32:00.552Z,54.11
2018-04-25T03:33:00.543Z,54.07
2018-04-25T03:34:00.458Z,54.11
2018-04-25T03:35:00.614Z,54.11
2018-04-25T03:36:00.407Z,54.11
2018-04-25T03:37:00.554Z,54.08
2018-04-25T03:38:00.475Z,54.14
2018-04-25T03:39:00.533Z,54.11
2018-04-25T03:40:00.423Z,54.07
2018-04-25T03:41:00.861Z,54.09
2018-04-25T03:42:00.487Z,54.11
2018-04-25T03:43:00.516Z,54.08
2018-04-25T03:44:00.338Z,54.11
2018-04-25T03:45:00.464Z,54.09
2018-04-25T03:46:00.417Z,54.08
2018-04-25T03:47:00.616Z,54.08
2018-04-25T03:48:00.497Z,54.06
2018-04-25T03:49:00.553Z,54.06
2018-04-25T03:50:00.400Z,54.13
2018-04-25T03:51:00.564Z,54.09
2018-04-25T03:52:00.486Z,54.07
2018-04-25T03:53:00.383Z,54.08
2018-04-25T03:54:00.562Z,54.13
2018-04-25T03:55:00.568Z,54.07
2018-04-25T03:56:00.390Z,54.09
2018-04-25T03:57:00.565Z,54.08
2018-04-25T03:58:00.559Z,54.09
2018-04-25T03:59:00.878Z,54.1
2018-04-25T04:00:00.490Z,54.11
2018-04-25T04:01:00.347Z,54.07
2018-04-25T04:02:00.417Z,54.05
2018-04-25T04:03:00.450Z,54.11
2018-04-25T04:04:00.544Z,54.07
2018-04-25T04:05:00.347Z,54.08
2018-04-25T04:06:00.342Z,54.06
2018-04-25T04:07:00.545Z,54.11
2018-04-25T04:08:00.473Z,54.05
2018-04-25T04:09:00.538Z,54.07
2018-04-25T04:10:00.363Z,54.07
2018-04-25T04:11:00.354Z,54.06
2018-04-25T04:12:00.524Z,54.05
2018-04-25T04:13:01.223Z,54.05
2018-04-25T04:14:00.412Z,54.08
2018-04-25T04:15:00.413Z,54.04
2018-04-25T04:16:00.610Z,54.05
2018-04-25T04:17:00.415Z,54.07
2018-04-25T04:18:00.493Z,54.05
2018-04-25T04:19:00.372Z,54.07
2018-04-25T04:20:00.427Z,54.07
2018-04-25T04:21:00.421Z,54.05
2018-04-25T04:22:00.434Z,54.02
2018-04-25T04:23:00.543Z,54.04
2018-04-25T04:24:00.441Z,54.02
2018-04-25T04:25:00.341Z,54.05
2018-04-25T04:26:00.414Z,54
2018-04-25T04:27:00.471Z,54
2018-04-25T04:28:00.574Z,54.07
2018-04-25T04:29:00.565Z,54.01
2018-04-25T04:30:00.402Z,54.04
2018-04-25T04:31:00.548Z,54.04
2018-04-25T04:32:00.437Z,54.01
2018-04-25T04:33:00.369Z,54.04
2018-04-25T04:34:00.350Z,54.09
2018-04-25T04:35:00.491Z,54.05
2018-04-25T04:36:00.444Z,54.07
2018-04-25T04:37:00.334Z,54.08
2018-04-25T04:38:00.520Z,54.01
2018-04-25T04:39:00.541Z,54.06
2018-04-25T04:40:00.319Z,54.08
2018-04-25T04:41:00.533Z,54.04
2018-04-25T04:42:00.485Z,54.03
2018-04-25T04:43:00.416Z,54.02
2018-04-25T04:44:00.552Z,54.05
2018-04-25T04:45:00.419Z,54.06
2018-04-25T04:46:00.469Z,54.06
2018-04-25T04:47:00.495Z,54
2018-04-25T04:48:00.440Z,54.05
2018-04-25T04:49:00.518Z,54.02
2018-04-25T04:50:00.607Z,54.01
2018-04-25T04:51:00.419Z,54.04
2018-04-25T04:52:00.447Z,54.04
2018-04-25T04:53:00.719Z,53.99
2018-04-25T04:54:00.456Z,54.03
2018-04-25T04:55:00.559Z,54
2018-04-25T04:56:00.429Z,54.03
2018-04-25T04:57:00.541Z,54
2018-04-25T04:58:00.479Z,53.99
2018-04-25T04:59:00.461Z,54.01
2018-04-25T05:00:00.345Z,54.08
2018-04-25T05:01:00.534Z,54.06
2018-04-25T05:02:00.532Z,54.03
2018-04-25T05:03:00.752Z,54.07
2018-04-25T05:04:00.557Z,54.04
2018-04-25T05:05:00.492Z,54.01
2018-04-25T05:06:00.407Z,53.98
2018-04-25T05:07:00.508Z,54.02
2018-04-25T05:08:00.457Z,54.05
2018-04-25T05:09:00.412Z,53.99
2018-04-25T05:10:00.408Z,54.02
2018-04-25T05:11:00.436Z,54
2018-04-25T05:12:00.491Z,54.07
2018-04-25T05:13:00.903Z,53.98
2018-04-25T05:14:00.451Z,54.06
2018-04-25T05:15:00.455Z,54.05
2018-04-25T05:16:00.469Z,54.01
2018-04-25T05:17:00.477Z,54.06
2018-04-25T05:18:00.475Z,54.02
2018-04-25T05:19:00.480Z,54.03
2018-04-25T05:20:00.499Z,54.06
2018-04-25T05:21:00.521Z,54.06
2018-04-25T05:22:00.495Z,54.11
2018-04-25T05:23:00.602Z,54.05
2018-04-25T05:24:00.678Z,54.07
2018-04-25T05:25:00.521Z,54.06
2018-04-25T05:26:00.517Z,54.03
2018-04-25T05:27:00.383Z,54.05
2018-04-25T05:28:00.549Z,53.99
2018-04-25T05:29:00.515Z,53.99
2018-04-25T05:30:00.483Z,54.04
2018-04-25T05:31:00.433Z,54
2018-04-25T05:32:00.792Z,53.98
2018-04-25T05:33:00.317Z,54.01
2018-04-25T05:34:00.697Z,53.99
2018-04-25T05:35:00.444Z,54.05
2018-04-25T05:36:00.440Z,54.01
2018-04-25T05:37:00.476Z,54.04
2018-04-25T05:38:00.453Z,54.02
2018-04-25T05:39:00.470Z,54.08
2018-04-25T05:40:00.452Z,54.04
2018-04-25T05:41:00.377Z,54.02
2018-04-25T05:42:00.412Z,54.1
2018-04-25T05:43:00.436Z,54.09
2018-04-25T05:44:00.295Z,54.03
2018-04-25T05:45:00.413Z,54.02
2018-04-25T05:46:01.122Z,53.98
2018-04-25T05:47:00.547Z,54.02
2018-04-25T05:48:00.697Z,54.04
2018-04-25T05:49:00.558Z,53.99
2018-04-25T05:50:00.575Z,53.99
2018-04-25T05:51:00.405Z,54
2018-04-25T05:52:00.421Z,54.06
2018-04-25T05:53:00.305Z,54.11
2018-04-25T05:54:00.477Z,54.13
2018-04-25T05:55:00.451Z,54.09
2018-04-25T05:56:00.441Z,54.17
2018-04-25T05:57:00.480Z,54.39
2018-04-25T05:58:01.329Z,54.28
2018-04-25T05:59:00.335Z,54.23
2018-04-25T06:00:00.608Z,54.08
2018-04-25T06:01:00.387Z,54.13
2018-04-25T06:02:00.409Z,54.17
2018-04-25T06:03:00.370Z,54.25
2018-04-25T06:04:00.320Z,54.19
2018-04-25T06:05:00.673Z,54.1
2018-04-25T06:06:00.299Z,54.23
2018-04-25T06:07:00.315Z,54.23
2018-04-25T06:08:00.623Z,54.22
2018-04-25T06:09:00.510Z,54.21
2018-04-25T06:10:00.337Z,54.54
2018-04-25T06:11:00.321Z,54.21
2018-04-25T06:12:00.410Z,54.38
2018-04-25T06:13:00.442Z,54.31
2018-04-25T06:14:00.315Z,54.21
2018-04-25T06:15:00.409Z,54.28
2018-04-25T06:16:00.500Z,54.23
2018-04-25T06:17:00.415Z,54.22
2018-04-25T06:18:00.522Z,54.26
2018-04-25T06:19:00.351Z,54.27
2018-04-25T06:20:00.346Z,54.16
2018-04-25T06:21:00.340Z,54.32
2018-04-25T06:22:00.474Z,54.27
2018-04-25T06:23:00.394Z,54.16
2018-04-25T06:24:00.313Z,54.22
2018-04-25T06:25:00.449Z,54.18
2018-04-25T06:26:01.146Z,54.13
2018-04-25T06:27:00.399Z,54.22
2018-04-25T06:28:00.506Z,54.22
2018-04-25T06:29:00.412Z,54.08
2018-04-25T06:30:00.285Z,54.17
2018-04-25T06:31:00.313Z,54.18
2018-04-25T06:32:00.428Z,54.15
2018-04-25T06:33:00.325Z,54.21
2018-04-25T06:34:00.792Z,54.23
2018-04-25T06:35:00.352Z,54.11
2018-04-25T06:36:00.476Z,54.14
2018-04-25T06:37:00.495Z,54.17
2018-04-25T06:38:00.492Z,54.11
2018-04-25T06:39:00.492Z,54.15
2018-04-25T06:40:00.836Z,54.15
2018-04-25T06:41:00.367Z,54.08
2018-04-25T06:42:00.431Z,54.16
2018-04-25T06:43:00.427Z,54.15
2018-04-25T06:44:00.498Z,54.07
2018-04-25T06:45:01.046Z,54.13
2018-04-25T06:46:00.446Z,54.16
2018-04-25T06:47:00.427Z,54.07
2018-04-25T06:48:00.472Z,54.13
2018-04-25T06:49:00.488Z,54.13
2018-04-25T06:50:00.347Z,54.05
2018-04-25T06:51:00.516Z,54.11
2018-04-25T06:52:00.356Z,54.12
2018-04-25T06:53:00.400Z,54.07
2018-04-25T06:54:00.363Z,54.06
2018-04-25T06:55:00.806Z,54.09
2018-04-25T06:56:00.331Z,54.03
2018-04-25T06:57:00.502Z,54.07
2018-04-25T06:58:00.336Z,54.04
2018-04-25T06:59:00.299Z,54.04
2018-04-25T07:00:00.496Z,54.04
2018-04-25T07:01:00.487Z,54.08
2018-04-25T07:02:00.344Z,54
2018-04-25T07:03:00.600Z,54.03
2018-04-25T07:04:00.347Z,54.04
2018-04-25T07:05:00.334Z,54.01
2018-04-25T07:06:00.495Z,54.02
2018-04-25T07:07:00.357Z,54.02
2018-04-25T07:08:01.121Z,54
2018-04-25T07:09:00.477Z,54.03
2018-04-25T07:10:00.437Z,54
2018-04-25T07:11:00.449Z,53.99
2018-04-25T07:12:00.308Z,53.98
2018-04-25T07:13:00.303Z,53.97
2018-04-25T07:14:00.985Z,53.94
2018-04-25T07:15:00.423Z,53.99
2018-04-25T07:16:00.286Z,53.97
2018-04-25T07:17:00.413Z,53.97
2018-04-25T07:18:00.490Z,53.97
2018-04-25T07:19:00.413Z,53.94
2018-04-25T07:20:00.239Z,53.92
2018-04-25T07:21:00.250Z,53.96
2018-04-25T07:22:00.359Z,53.94
2018-04-25T07:23:00.404Z,53.97
2018-04-25T07:24:00.292Z,53.95
2018-04-25T07:25:00.569Z,53.97
2018-04-25T07:26:00.293Z,53.91
2018-04-25T07:27:00.382Z,53.93
2018-04-25T07:28:00.300Z,53.94
2018-04-25T07:29:00.441Z,53.92
2018-04-25T07:30:00.335Z,54.01
2018-04-25T07:31:00.307Z,53.95
2018-04-25T07:32:00.586Z,53.91
2018-04-25T07:33:00.488Z,53.91
2018-04-25T07:34:00.409Z,53.95
2018-04-25T07:35:00.446Z,53.93
2018-04-25T07:36:00.453Z,53.9
2018-04-25T07:37:00.393Z,53.91
2018-04-25T07:38:00.428Z,53.9
2018-04-25T07:39:00.327Z,53.85
2018-04-25T07:40:00.523Z,53.97
2018-04-25T07:41:00.462Z,53.9
2018-04-25T07:42:01.193Z,53.95
2018-04-25T07:43:00.424Z,53.91
2018-04-25T07:44:00.533Z,53.9
2018-04-25T07:45:00.513Z,53.91
2018-04-25T07:46:02.328Z,53.91
2018-04-25T07:47:00.425Z,53.95
2018-04-25T07:48:00.484Z,53.92
2018-04-25T07:49:00.381Z,53.97
2018-04-25T07:50:00.625Z,53.93
2018-04-25T07:51:00.530Z,53.88
2018-04-25T07:52:00.383Z,53.97
2018-04-25T07:53:00.375Z,53.91
2018-04-25T07:54:00.388Z,53.89
2018-04-25T07:55:00.542Z,53.91
2018-04-25T07:56:00.448Z,53.91
2018-04-25T07:57:00.452Z,53.89
2018-04-25T07:58:00.541Z,53.89
2018-04-25T07:59:00.500Z,53.89
2018-04-25T08:00:00.385Z,53.95
2018-04-25T08:01:00.619Z,53.91
2018-04-25T08:02:00.491Z,53.91
2018-04-25T08:03:00.404Z,53.94
2018-04-25T08:04:00.433Z,53.93
2018-04-25T08:05:00.316Z,53.88
2018-04-25T08:06:01.223Z,53.97
2018-04-25T08:07:00.502Z,53.91
2018-04-25T08:08:00.351Z,53.87
2018-04-25T08:09:00.706Z,53.97
2018-04-25T08:10:00.389Z,54.01
2018-04-25T08:11:00.395Z,53.88
2018-04-25T08:12:00.571Z,53.96
2018-04-25T08:13:00.394Z,53.93
2018-04-25T08:14:00.460Z,53.87
2018-04-25T08:15:00.484Z,53.88
2018-04-25T08:16:00.504Z,53.95
2018-04-25T08:17:00.341Z,53.89
2018-04-25T08:18:00.965Z,53.91
2018-04-25T08:19:00.511Z,53.97
2018-04-25T08:20:00.338Z,53.96
2018-04-25T08:21:00.421Z,53.91
2018-04-25T08:22:00.490Z,53.87
2018-04-25T08:23:00.441Z,53.85
2018-04-25T08:24:00.454Z,53.99
2018-04-25T08:25:00.358Z,53.88
2018-04-25T08:26:00.404Z,53.88
2018-04-25T08:27:00.478Z,53.98
2018-04-25T08:28:00.343Z,53.92
2018-04-25T08:29:00.361Z,53.86
2018-04-25T08:30:00.240Z,53.94
2018-04-25T08:31:00.422Z,53.91
2018-04-25T08:32:00.290Z,53.89
2018-04-25T08:33:00.442Z,53.82
2018-04-25T08:34:00.290Z,53.94
2018-04-25T08:35:00.454Z,53.88
2018-04-25T08:36:00.232Z,53.84
2018-04-25T08:37:00.480Z,53.89
2018-04-25T08:38:00.412Z,53.86
2018-04-25T08:39:00.406Z,53.86
2018-04-25T08:40:00.437Z,53.89
2018-04-25T08:41:00.457Z,53.87
2018-04-25T08:42:00.275Z,53.88
2018-04-25T08:43:00.313Z,53.84
2018-04-25T08:44:00.464Z,53.84
2018-04-25T08:45:01.246Z,53.91
2018-04-25T08:46:00.303Z,53.89
2018-04-25T08:47:00.339Z,53.88
2018-04-25T08:48:00.509Z,53.85
2018-04-25T08:49:00.352Z,53.92
2018-04-25T08:50:00.438Z,53.84
2018-04-25T08:51:00.464Z,53.92
2018-04-25T08:52:00.471Z,53.92
2018-04-25T08:53:00.473Z,53.84
2018-04-25T08:54:00.452Z,53.94
2018-04-25T08:55:02.266Z,53.91
2018-04-25T08:56:00.245Z,53.87
2018-04-25T08:57:00.465Z,53.9
2018-04-25T08:58:00.441Z,53.95
2018-04-25T08:59:00.260Z,53.87
2018-04-25T09:00:00.399Z,53.9
2018-04-25T09:01:00.512Z,53.88
2018-04-25T09:02:00.301Z,53.84
2018-04-25T09:03:00.431Z,53.86
2018-04-25T09:04:00.678Z,53.92
2018-04-25T09:05:00.583Z,53.81
2018-04-25T09:06:00.316Z,53.88
2018-04-25T09:07:00.494Z,53.87
2018-04-25T09:08:00.230Z,53.87
2018-04-25T09:09:00.403Z,53.85
2018-04-25T09:10:00.479Z,53.87
2018-04-25T09:11:00.306Z,53.89
2018-04-25T09:12:00.484Z,53.91
2018-04-25T09:13:00.501Z,53.81
2018-04-25T09:14:00.379Z,53.84
2018-04-25T09:15:00.296Z,53.86
2018-04-25T09:16:00.249Z,53.9
2018-04-25T09:17:00.400Z,53.8
2018-04-25T09:18:00.287Z,53.86
2018-04-25T09:19:00.296Z,53.86
2018-04-25T09:20:00.420Z,53.87
2018-04-25T09:21:00.464Z,53.82
2018-04-25T09:22:00.263Z,53.85
2018-04-25T09:23:00.458Z,53.87
2018-04-25T09:24:00.395Z,53.85
2018-04-25T09:25:00.288Z,53.82
2018-04-25T09:26:00.407Z,53.8
2018-04-25T09:27:00.300Z,53.84
2018-04-25T09:28:00.330Z,53.8
2018-04-25T09:29:00.521Z,53.74
2018-04-25T09:30:00.426Z,53.78
2018-04-25T09:31:00.392Z,53.81
2018-04-25T09:32:00.406Z,53.79
2018-04-25T09:33:00.244Z,53.85
2018-04-25T09:34:00.388Z,53.8
2018-04-25T09:35:00.433Z,53.79
2018-04-25T09:36:00.520Z,53.84
2018-04-25T09:37:00.493Z,53.81
2018-04-25T09:38:00.456Z,53.79
2018-04-25T09:39:00.464Z,53.81
2018-04-25T09:40:00.373Z,53.82
2018-04-25T09:41:00.425Z,53.79
2018-04-25T09:42:00.347Z,53.78
2018-04-25T09:43:00.450Z,53.8
2018-04-25T09:44:00.235Z,53.78
2018-04-25T09:45:00.233Z,53.81
2018-04-25T09:46:01.267Z,53.78
2018-04-25T09:47:00.225Z,53.7
2018-04-25T09:48:00.241Z,53.78
2018-04-25T09:49:00.424Z,53.78
2018-04-25T09:50:00.357Z,53.78
2018-04-25T09:51:00.648Z,53.82
2018-04-25T09:52:00.316Z,53.84
2018-04-25T09:53:00.438Z,53.74
2018-04-25T09:54:00.455Z,53.79
2018-04-25T09:55:00.377Z,53.81
2018-04-25T09:56:00.331Z,53.73
2018-04-25T09:57:00.370Z,53.79
2018-04-25T09:58:00.929Z,53.78
2018-04-25T09:59:00.236Z,53.77
2018-04-25T10:00:00.397Z,53.77
2018-04-25T10:01:00.234Z,53.79
2018-04-25T10:02:00.357Z,53.77
2018-04-25T10:03:00.314Z,53.81
2018-04-25T10:04:01.153Z,53.84
2018-04-25T10:05:00.351Z,53.73
2018-04-25T10:06:00.625Z,53.81
2018-04-25T10:07:00.361Z,53.81
2018-04-25T10:08:00.386Z,53.76
2018-04-25T10:09:00.270Z,53.73
2018-04-25T10:10:00.319Z,53.76
2018-04-25T10:11:00.439Z,53.73
2018-04-25T10:12:00.375Z,53.8
2018-04-25T10:13:00.409Z,53.77
2018-04-25T10:14:00.261Z,53.72
2018-04-25T10:15:00.292Z,53.79
2018-04-25T10:16:00.485Z,53.77
2018-04-25T10:17:01.136Z,53.73
2018-04-25T10:18:00.226Z,53.76
2018-04-25T10:19:00.294Z,53.73
2018-04-25T10:20:00.333Z,53.73
2018-04-25T10:21:00.415Z,53.76
2018-04-25T10:22:00.360Z,53.79
2018-04-25T10:23:00.251Z,53.7
2018-04-25T10:24:00.703Z,53.74
2018-04-25T10:25:00.286Z,53.73
2018-04-25T10:26:00.477Z,53.7
2018-04-25T10:27:00.439Z,53.71
2018-04-25T10:28:00.455Z,53.7
2018-04-25T10:29:00.391Z,53.68
2018-04-25T10:30:00.483Z,53.76
2018-04-25T10:31:00.264Z,53.78
2018-04-25T10:32:00.995Z,53.7
2018-04-25T10:33:00.221Z,53.68
2018-04-25T10:34:00.426Z,53.76
2018-04-25T10:35:00.449Z,53.74
2018-04-25T10:36:00.398Z,53.75
2018-04-25T10:37:00.357Z,53.71
2018-04-25T10:38:00.506Z,53.67
2018-04-25T10:39:01.128Z,53.75
2018-04-25T10:40:00.243Z,53.72
2018-04-25T10:41:00.412Z,53.73
2018-04-25T10:42:00.339Z,53.73
2018-04-25T10:43:00.409Z,53.72
2018-04-25T10:44:00.321Z,53.72
2018-04-25T10:45:00.319Z,53.76
2018-04-25T10:46:00.323Z,53.74
2018-04-25T10:47:00.425Z,53.69
2018-04-25T10:48:00.220Z,53.71
2018-04-25T10:49:00.436Z,53.7
2018-04-25T10:50:00.382Z,53.72
2018-04-25T10:51:00.464Z,53.71
2018-04-25T10:52:00.290Z,53.64
2018-04-25T10:53:00.404Z,53.68
2018-04-25T10:54:00.319Z,53.74
2018-04-25T10:55:00.281Z,53.77
2018-04-25T10:56:00.510Z,53.64
2018-04-25T10:57:00.442Z,53.69
2018-04-25T10:58:00.338Z,53.71
2018-04-25T10:59:00.431Z,53.69
2018-04-25T11:00:00.435Z,53.7
2018-04-25T11:01:00.231Z,53.72
2018-04-25T11:02:00.265Z,53.73
2018-04-25T11:03:00.330Z,53.71
2018-04-25T11:04:00.394Z,53.69
2018-04-25T11:05:00.362Z,53.76
2018-04-25T11:06:00.244Z,53.74
2018-04-25T11:07:00.327Z,53.76
2018-04-25T11:08:00.419Z,53.73
2018-04-25T11:09:00.444Z,53.68
2018-04-25T11:10:00.427Z,53.77
2018-04-25T11:11:00.237Z,53.7
2018-04-25T11:12:00.210Z,53.75
2018-04-25T11:13:00.211Z,53.73
2018-04-25T11:14:00.293Z,53.7
2018-04-25T11:15:00.523Z,53.73
2018-04-25T11:16:00.307Z,53.74
2018-04-25T11:17:00.119Z,53.73
2018-04-25T11:18:00.260Z,53.69
2018-04-25T11:19:00.383Z,53.76
2018-04-25T11:20:00.354Z,53.69
2018-04-25T11:21:00.417Z,53.73
2018-04-25T11:22:00.415Z,53.75
2018-04-25T11:23:00.297Z,53.67
2018-04-25T11:24:00.310Z,53.77
2018-04-25T11:25:00.322Z,53.79
2018-04-25T11:26:00.320Z,53.69
2018-04-25T11:27:00.280Z,53.78
2018-04-25T11:28:00.340Z,53.75
2018-04-25T11:29:00.255Z,53.66
2018-04-25T11:30:00.294Z,53.73
2018-04-25T11:31:00.360Z,53.78
2018-04-25T11:32:01.324Z,53.69
2018-04-25T11:33:00.485Z,53.69
2018-04-25T11:34:00.355Z,53.73
2018-04-25T11:35:00.422Z,53.68
2018-04-25T11:36:00.429Z,53.76
2018-04-25T11:37:00.364Z,53.77
2018-04-25T11:38:02.433Z,53.77
2018-04-25T11:39:00.369Z,53.95
2018-04-25T11:40:00.399Z,53.89
2018-04-25T11:41:00.250Z,54.01
2018-04-25T11:42:00.366Z,53.97
2018-04-25T11:43:00.293Z,53.97
2018-04-25T11:44:00.254Z,53.83
2018-04-25T11:45:00.443Z,53.76
2018-04-25T11:46:00.396Z,53.84
2018-04-25T11:47:00.455Z,53.86
2018-04-25T11:48:00.614Z,53.97
2018-04-25T11:49:00.393Z,53.97
2018-04-25T11:50:00.260Z,53.94
2018-04-25T11:51:00.283Z,53.89
2018-04-25T11:52:00.404Z,54.01
2018-04-25T11:53:00.308Z,53.9
2018-04-25T11:54:00.253Z,53.9
2018-04-25T11:55:00.458Z,53.99
2018-04-25T11:56:00.405Z,54.05
2018-04-25T11:57:00.267Z,54.12
2018-04-25T11:58:00.415Z,54.1
2018-04-25T11:59:00.218Z,53.96
2018-04-25T12:00:00.425Z,54.02
2018-04-25T12:01:00.253Z,53.97
2018-04-25T12:02:00.454Z,53.92
2018-04-25T12:03:00.239Z,53.92
2018-04-25T12:04:00.541Z,53.92
2018-04-25T12:05:00.948Z,53.83
2018-04-25T12:06:00.397Z,53.98
2018-04-25T12:07:00.461Z,53.88
2018-04-25T12:08:00.256Z,53.91
2018-04-25T12:09:00.257Z,53.89
2018-04-25T12:10:00.290Z,53.9
2018-04-25T12:11:00.256Z,53.85
2018-04-25T12:12:00.260Z,53.89
2018-04-25T12:13:00.370Z,53.86
2018-04-25T12:14:00.403Z,53.85
2018-04-25T12:15:00.229Z,53.83
2018-04-25T12:16:00.391Z,53.88
2018-04-25T12:17:00.207Z,53.83
2018-04-25T12:18:00.638Z,53.84
2018-04-25T12:19:00.352Z,53.86
2018-04-25T12:20:00.331Z,53.83
2018-04-25T12:21:00.168Z,53.86
2018-04-25T12:22:00.195Z,53.84
2018-04-25T12:23:00.268Z,53.78
2018-04-25T12:24:00.397Z,53.84
2018-04-25T12:25:00.375Z,53.83
2018-04-25T12:26:00.318Z,53.8
2018-04-25T12:27:00.374Z,53.85
2018-04-25T12:28:00.153Z,53.86
2018-04-25T12:29:00.498Z,53.76
2018-04-25T12:30:00.373Z,53.87
2018-04-25T12:31:00.315Z,53.84
2018-04-25T12:32:00.495Z,53.77
2018-04-25T12:33:00.425Z,53.8
2018-04-25T12:34:00.455Z,53.81
2018-04-25T12:35:00.420Z,53.78
2018-04-25T12:36:00.200Z,53.84
2018-04-25T12:37:00.250Z,53.83
2018-04-25T12:38:00.391Z,53.75
2018-04-25T12:39:00.430Z,53.8
2018-04-25T12:40:00.255Z,53.83
2018-04-25T12:41:00.413Z,53.76
2018-04-25T12:42:00.343Z,53.79
2018-04-25T12:43:00.390Z,53.77
2018-04-25T12:44:00.352Z,53.76
2018-04-25T12:45:00.342Z,53.81
2018-04-25T12:46:00.579Z,53.78
2018-04-25T12:47:00.429Z,53.73
2018-04-25T12:48:00.419Z,53.78
2018-04-25T12:49:00.383Z,53.81
2018-04-25T12:50:00.397Z,53.74
2018-04-25T12:51:00.357Z,53.78
2018-04-25T12:52:00.477Z,53.78
2018-04-25T12:53:00.152Z,53.72
2018-04-25T12:54:00.902Z,53.76
2018-04-25T12:55:00.396Z,53.78